Tuesday, January 17, 2017, 3:50 AM EST

KNHK, Nas Patuxent River Md

Location: Patuxent River, MD, United States Lat: 38.3
Local Time: 3:50 AM EST ( 8:50 GMT) Lon: -76.4
Time Zone: US/Eastern Elev: 39 ft

Show me the last for .
Show Decoded

2017-01-17 02:52 METAR KNHK 170752Z AUTO 19005KT 10SM CLR 05/02 A3027 RMK AO2 SLP249 T00500022 $
                 =
2017-01-17 02:26 METAR KNHK 170726Z AUTO 20005KT 10SM FEW010 FEW022 05/02 A3027 RMK AO2 T00500017
                 $ =
2017-01-17 01:59 METAR KNHK 170659Z AUTO 20006KT 10SM FEW010 BKN018 06/01 A3027 RMK AO2 T00560011
                 $ =
2017-01-17 01:52 METAR KNHK 170652Z AUTO 20004KT 10SM BKN012 OVC018 06/01 A3027 RMK AO2 SLP251
                 T00560011 $ =
2017-01-17 00:52 METAR KNHK 170552Z AUTO 15003KT 10SM OVC011 06/01 A3028 RMK AO2 SLP254 T00560006
                 10056 20050 58023 $ =
2017-01-17 00:08 METAR KNHK 170508Z AUTO 17004KT 10SM OVC014 06/01 A3030 RMK AO2 T00560006 $ =
2017-01-16 23:52 METAR KNHK 170452Z AUTO 15005KT 10SM OVC015 06/01 A3031 RMK AO2 SLP263 T00560006
                 400560028 $ =
2017-01-16 22:52 METAR KNHK 170352Z AUTO 18004KT 10SM OVC021 06/00 A3034 RMK AO2 SLP272 T00560000
                 $ =
2017-01-16 21:52 METAR KNHK 170252Z AUTO 18005KT 10SM OVC027 06/M01 A3035 RMK AO2 SLP277
                 T00561006 58006 $ =
2017-01-16 20:52 METAR KNHK 170152Z AUTO 00000KT 10SM OVC024 06/M03 A3036 RMK AO2 SLP281
                 T00561028 $ =
2017-01-16 19:52 METAR KNHK 170052Z AUTO 17003KT 10SM OVC029 05/M04 A3036 RMK AO2 SLP281
                 T00501039 $ =
2017-01-16 18:52 METAR KNHK 162352Z AUTO 15003KT 10SM OVC027 05/M03 A3037 RMK AO2 SLP283
                 T00501028 10050 20044 58008 $ =
2017-01-16 18:28 METAR KNHK 162328Z AUTO 15004KT 10SM OVC029 04/M01 A3037 RMK AO2 T00441006 $ =
2017-01-16 17:52 METAR KNHK 162252Z AUTO 15005KT 10SM OVC030 04/M02 A3038 RMK AO2 SLP287
                 T00441017 $ =
2017-01-16 16:52 METAR KNHK 162152Z AUTO 14004KT 10SM OVC032 04/M01 A3039 RMK AO2 SLP292
                 T00441006 $ =
2017-01-16 15:52 METAR KNHK 162052Z AUTO 14005KT 10SM OVC035 05/01 A3039 RMK AO2 SLP290 T00500006
                 56015 $ =
2017-01-16 14:52 METAR KNHK 161952Z AUTO 11006KT 10SM OVC033 04/01 A3039 RMK AO2 SLP292 T00440006
                 $ =
2017-01-16 13:52 METAR KNHK 161852Z AUTO 13006KT 10SM OVC036 05/00 A3040 RMK AO2 SLP293 T00500000
                 $ =
2017-01-16 12:52 METAR KNHK 161752Z AUTO 08004KT 10SM OVC037 05/01 A3043 RMK AO2 SLP305 T00500006
                 10050 20033 58021 $ =
2017-01-16 11:52 METAR KNHK 161652Z AUTO 15004KT 10SM SCT036 OVC100 04/00 A3046 RMK AO2 CIG 036
                 RY24 SLP313 T00390000 $ =
2017-01-16 10:52 METAR KNHK 161552Z AUTO 12004KT 10SM OVC038 04/M01 A3049 RMK AO2 SLP324
                 T00391006 $ =
2017-01-16 09:52 METAR KNHK 161452Z AUTO 11005KT 10SM OVC037 04/M01 A3050 RMK AO2 SLP326
                 T00391006 53015 $ =
2017-01-16 08:52 METAR KNHK 161352Z AUTO 09006KT 10SM OVC037 03/M01 A3048 RMK AO2 SLP321
                 T00331006 $ =
2017-01-16 07:52 METAR KNHK 161252Z AUTO 09005KT 10SM OVC036 03/M01 A3046 RMK AO2 SLP314
                 T00331006 $ =
2017-01-16 06:52 METAR KNHK 161152Z AUTO 09004KT 10SM OVC038 03/00 A3045 RMK AO2 SLP312 T00330000
                 10039 20028 53004 $ =
2017-01-16 05:52 METAR KNHK 161052Z AUTO 10005KT 10SM OVC040 03/M01 A3045 RMK AO2 SLP310
                 T00281011 $ =
2017-01-16 04:52 METAR KNHK 160952Z AUTO 10005KT 10SM OVC095 03/M01 A3044 RMK AO2 SLP307
                 T00331011 $ =
2017-01-16 03:52 METAR KNHK 160852Z AUTO 08004KT 10SM OVC039 03/00 A3044 RMK AO2 SLP307 T00330000
                 50003 $ =

Support USWX by starting your Amazon purchase here.